LGX43B LIPZ-LIEO
Flight info
| Callsign | LGX43B |
|---|---|
| Flight time | 1h 5m |
| Altitude | 35000 |
| Route | CHI DCT LOBSI DCT GIPUK DCT AMTEL DCT MAMAR DCT BATOX |
| Aircraft | A20N/M-SDE2FGHIJ1RWXY/HB1 |
Departure
| Time | 2026-04-29 16:54 |
|---|---|
| Airport | Venice Marco Polo Airport (LIPZ) |
Arrival
| Time | 2026-04-29 18:00 |
|---|---|
| Airport | Olbia Costa Smeralda Airport (LIEO) |
| Time | Latitude | Longitude | Altitude | Speed | Heading |
|---|---|---|---|---|---|
| 2026-04-29 16:49 | 45.49802 | 12.33629 | 8 ft | 0 kts | 222° |
| 2026-04-29 16:51 | 45.49800 | 12.33628 | 8 ft | 0 kts | 220° |
| 2026-04-29 16:51 | 45.49797 | 12.33628 | 8 ft | 0 kts | 167° |
| 2026-04-29 16:52 | 45.49796 | 12.33628 | 8 ft | 0 kts | 166° |
| 2026-04-29 16:52 | 45.49754 | 12.33638 | 9 ft | 10 kts | 176° |
| 2026-04-29 16:52 | 45.49693 | 12.33623 | 8 ft | 16 kts | 207° |
| 2026-04-29 16:52 | 45.49575 | 12.33542 | 6 ft | 20 kts | 171° |
| 2026-04-29 16:53 | 45.49451 | 12.33702 | 8 ft | 16 kts | 114° |
| 2026-04-29 16:53 | 45.49474 | 12.33849 | 9 ft | 15 kts | 48° |
| 2026-04-29 16:53 | 45.49488 | 12.33868 | 8 ft | 0 kts | 41° |
| 2026-04-29 16:53 | 45.49494 | 12.33876 | 9 ft | 11 kts | 42° |
| 2026-04-29 16:54 | 45.49938 | 12.34450 | 9 ft | 112 kts | 42° |
| 2026-04-29 16:54 | 45.50667 | 12.35389 | 15 ft | 168 kts | 43° |
| 2026-04-29 16:54 | 45.51265 | 12.36170 | 361 ft | 177 kts | 43° |
| 2026-04-29 16:54 | 45.52565 | 12.37837 | 859 ft | 203 kts | 42° |
| 2026-04-29 16:55 | 45.53672 | 12.39250 | 1116 ft | 219 kts | 42° |
| 2026-04-29 16:55 | 45.54843 | 12.40743 | 1456 ft | 229 kts | 42° |
| 2026-04-29 16:55 | 45.55652 | 12.41774 | 1682 ft | 240 kts | 42° |
| 2026-04-29 16:55 | 45.57338 | 12.43917 | 1956 ft | 246 kts | 42° |
| 2026-04-29 16:56 | 45.58627 | 12.45553 | 1955 ft | 247 kts | 42° |
| 2026-04-29 16:56 | 45.59910 | 12.47182 | 1954 ft | 246 kts | 42° |
| 2026-04-29 16:56 | 45.61223 | 12.48851 | 2152 ft | 255 kts | 42° |
| 2026-04-29 16:56 | 45.62676 | 12.50571 | 3144 ft | 260 kts | 31° |
| 2026-04-29 16:57 | 45.63770 | 12.51158 | 3878 ft | 260 kts | 9° |
| 2026-04-29 16:57 | 45.66119 | 12.50555 | 5049 ft | 270 kts | 330° |
| 2026-04-29 16:57 | 45.67115 | 12.49460 | 5616 ft | 274 kts | 311° |
| 2026-04-29 16:57 | 45.68180 | 12.46256 | 6786 ft | 275 kts | 274° |
| 2026-04-29 16:58 | 45.67956 | 12.43578 | 7752 ft | 272 kts | 247° |
| 2026-04-29 16:58 | 45.66917 | 12.41395 | 8682 ft | 273 kts | 221° |
| 2026-04-29 16:58 | 45.65266 | 12.40115 | 9513 ft | 281 kts | 196° |
| 2026-04-29 16:58 | 45.63318 | 12.39584 | 10338 ft | 286 kts | 192° |
| 2026-04-29 16:59 | 45.61351 | 12.39139 | 11086 ft | 291 kts | 192° |
| 2026-04-29 16:59 | 45.59353 | 12.38674 | 11824 ft | 296 kts | 192° |
| 2026-04-29 16:59 | 45.57332 | 12.38184 | 12541 ft | 301 kts | 193° |
| 2026-04-29 16:59 | 45.55256 | 12.37681 | 13235 ft | 307 kts | 190° |
| 2026-04-29 17:00 | 45.53095 | 12.37857 | 13895 ft | 320 kts | 165° |
| 2026-04-29 17:00 | 45.51133 | 12.39388 | 14536 ft | 331 kts | 138° |
| 2026-04-29 17:00 | 45.49681 | 12.42055 | 14908 ft | 348 kts | 121° |
| 2026-04-29 17:00 | 45.48389 | 12.45264 | 15240 ft | 366 kts | 119° |
| 2026-04-29 17:01 | 45.46986 | 12.48823 | 15571 ft | 384 kts | 120° |
| 2026-04-29 17:01 | 45.45588 | 12.52251 | 15859 ft | 400 kts | 121° |
| 2026-04-29 17:01 | 45.44143 | 12.55702 | 16119 ft | 414 kts | 121° |
| 2026-04-29 17:01 | 45.42648 | 12.59253 | 16366 ft | 428 kts | 121° |
| 2026-04-29 17:02 | 45.41613 | 12.61735 | 16533 ft | 437 kts | 121° |
| 2026-04-29 17:02 | 45.40026 | 12.65540 | 16960 ft | 444 kts | 123° |
| 2026-04-29 17:02 | 45.37197 | 12.69806 | 17642 ft | 445 kts | 149° |
| 2026-04-29 17:02 | 45.35361 | 12.71125 | 18019 ft | 443 kts | 163° |
| 2026-04-29 17:03 | 45.32369 | 12.71926 | 18554 ft | 438 kts | 182° |
| 2026-04-29 17:03 | 45.29121 | 12.71156 | 19075 ft | 433 kts | 204° |
| 2026-04-29 17:03 | 45.26415 | 12.68890 | 19565 ft | 427 kts | 225° |
| 2026-04-29 17:03 | 45.24574 | 12.65671 | 20039 ft | 422 kts | 244° |
| 2026-04-29 17:04 | 45.23607 | 12.61760 | 20521 ft | 419 kts | 261° |
| 2026-04-29 17:04 | 45.22680 | 12.56375 | 21120 ft | 426 kts | 252° |
| 2026-04-29 17:04 | 45.21900 | 12.53813 | 21403 ft | 431 kts | 246° |
| 2026-04-29 17:04 | 45.20352 | 12.50092 | 21871 ft | 436 kts | 239° |
| 2026-04-29 17:05 | 45.17906 | 12.45475 | 22454 ft | 442 kts | 234° |
| 2026-04-29 17:05 | 45.16591 | 12.43248 | 22734 ft | 445 kts | 233° |
| 2026-04-29 17:05 | 45.14560 | 12.39951 | 23147 ft | 448 kts | 232° |
| 2026-04-29 17:05 | 45.11775 | 12.35525 | 23686 ft | 452 kts | 232° |
| 2026-04-29 17:06 | 45.09709 | 12.32324 | 24059 ft | 456 kts | 228° |
| 2026-04-29 17:06 | 45.08152 | 12.30269 | 24308 ft | 460 kts | 224° |
| 2026-04-29 17:06 | 45.05579 | 12.27531 | 24683 ft | 466 kts | 216° |
| 2026-04-29 17:06 | 45.02763 | 12.25263 | 25058 ft | 470 kts | 210° |
| 2026-04-29 17:07 | 44.99761 | 12.23250 | 25578 ft | 469 kts | 208° |
| 2026-04-29 17:07 | 44.96807 | 12.21348 | 26118 ft | 467 kts | 207° |
| 2026-04-29 17:07 | 44.93845 | 12.19443 | 26629 ft | 465 kts | 208° |
| 2026-04-29 17:07 | 44.89958 | 12.16923 | 27286 ft | 462 kts | 208° |
| 2026-04-29 17:08 | 44.87069 | 12.15034 | 27799 ft | 459 kts | 208° |
| 2026-04-29 17:08 | 44.85167 | 12.13789 | 28125 ft | 457 kts | 208° |
| 2026-04-29 17:08 | 44.82293 | 12.11910 | 28596 ft | 455 kts | 208° |
| 2026-04-29 17:08 | 44.79441 | 12.10048 | 29021 ft | 453 kts | 208° |
| 2026-04-29 17:09 | 44.76597 | 12.08194 | 29410 ft | 452 kts | 208° |
| 2026-04-29 17:09 | 44.73745 | 12.06336 | 29780 ft | 451 kts | 208° |
| 2026-04-29 17:09 | 44.70905 | 12.04482 | 30081 ft | 452 kts | 208° |
| 2026-04-29 17:09 | 44.68074 | 12.02645 | 30375 ft | 452 kts | 208° |
| 2026-04-29 17:10 | 44.64259 | 12.00195 | 30811 ft | 452 kts | 207° |
| 2026-04-29 17:10 | 44.62335 | 11.99068 | 31029 ft | 452 kts | 205° |
| 2026-04-29 17:10 | 44.59365 | 11.97544 | 31349 ft | 453 kts | 202° |
| 2026-04-29 17:10 | 44.56392 | 11.96274 | 31652 ft | 454 kts | 199° |
| 2026-04-29 17:11 | 44.54299 | 11.95528 | 31856 ft | 455 kts | 197° |
| 2026-04-29 17:11 | 44.52080 | 11.94864 | 32069 ft | 455 kts | 194° |
| 2026-04-29 17:11 | 44.48969 | 11.94041 | 32363 ft | 455 kts | 194° |
| 2026-04-29 17:11 | 44.45856 | 11.93215 | 32652 ft | 454 kts | 195° |
| 2026-04-29 17:12 | 44.42796 | 11.92402 | 32927 ft | 453 kts | 195° |
| 2026-04-29 17:12 | 44.39711 | 11.91581 | 33200 ft | 453 kts | 195° |
| 2026-04-29 17:12 | 44.36629 | 11.90761 | 33449 ft | 453 kts | 195° |
| 2026-04-29 17:12 | 44.34553 | 11.90210 | 33593 ft | 453 kts | 195° |
| 2026-04-29 17:13 | 44.30419 | 11.89111 | 33849 ft | 454 kts | 195° |
| 2026-04-29 17:13 | 44.27327 | 11.88290 | 34036 ft | 455 kts | 195° |
| 2026-04-29 17:13 | 44.24241 | 11.87472 | 34221 ft | 456 kts | 195° |
| 2026-04-29 17:13 | 44.21155 | 11.86655 | 34412 ft | 456 kts | 195° |
| 2026-04-29 17:14 | 44.18024 | 11.85828 | 34606 ft | 456 kts | 195° |
| 2026-04-29 17:14 | 44.14956 | 11.85018 | 34790 ft | 456 kts | 195° |
| 2026-04-29 17:14 | 44.11809 | 11.84188 | 34970 ft | 456 kts | 195° |
| 2026-04-29 17:14 | 44.08698 | 11.83368 | 35055 ft | 457 kts | 195° |
| 2026-04-29 17:15 | 44.02465 | 11.81727 | 35062 ft | 456 kts | 195° |
| 2026-04-29 17:15 | 43.95232 | 11.79828 | 35064 ft | 455 kts | 195° |
| 2026-04-29 17:16 | 43.90080 | 11.78479 | 35064 ft | 454 kts | 195° |
| 2026-04-29 17:16 | 43.84054 | 11.76904 | 35064 ft | 453 kts | 195° |
| 2026-04-29 17:17 | 43.77917 | 11.75303 | 35064 ft | 453 kts | 195° |
| 2026-04-29 17:17 | 43.71721 | 11.73685 | 35057 ft | 450 kts | 195° |
| 2026-04-29 17:18 | 43.65607 | 11.72098 | 35025 ft | 450 kts | 195° |
| 2026-04-29 17:18 | 43.59466 | 11.70507 | 35002 ft | 451 kts | 195° |
| 2026-04-29 17:19 | 43.53314 | 11.68916 | 34990 ft | 451 kts | 195° |
| 2026-04-29 17:19 | 43.47189 | 11.67334 | 34985 ft | 451 kts | 195° |
| 2026-04-29 17:20 | 43.41037 | 11.65749 | 34982 ft | 451 kts | 195° |
| 2026-04-29 17:20 | 43.34858 | 11.64160 | 34981 ft | 451 kts | 195° |
| 2026-04-29 17:21 | 43.28720 | 11.62584 | 34981 ft | 451 kts | 195° |
| 2026-04-29 17:21 | 43.21538 | 11.60648 | 34983 ft | 450 kts | 197° |
| 2026-04-29 17:22 | 43.16509 | 11.58833 | 34992 ft | 449 kts | 199° |
| 2026-04-29 17:22 | 43.10509 | 11.56624 | 35000 ft | 450 kts | 199° |
| 2026-04-29 17:23 | 43.04457 | 11.54401 | 35004 ft | 451 kts | 199° |
| 2026-04-29 17:23 | 42.98417 | 11.52185 | 35007 ft | 452 kts | 199° |
| 2026-04-29 17:24 | 42.92348 | 11.49963 | 35007 ft | 452 kts | 199° |
| 2026-04-29 17:24 | 42.86298 | 11.47753 | 35007 ft | 452 kts | 199° |
| 2026-04-29 17:25 | 42.80217 | 11.45536 | 35007 ft | 452 kts | 199° |
| 2026-04-29 17:25 | 42.74147 | 11.43327 | 35007 ft | 452 kts | 199° |
| 2026-04-29 17:26 | 42.68055 | 11.41109 | 35006 ft | 456 kts | 199° |
| 2026-04-29 17:26 | 42.61953 | 11.38900 | 35007 ft | 456 kts | 199° |
| 2026-04-29 17:27 | 42.55823 | 11.36684 | 35007 ft | 456 kts | 199° |
| 2026-04-29 17:27 | 42.49727 | 11.34484 | 35008 ft | 456 kts | 198° |
| 2026-04-29 17:28 | 42.43610 | 11.32280 | 35007 ft | 456 kts | 198° |
| 2026-04-29 17:28 | 42.37497 | 11.30082 | 35007 ft | 456 kts | 198° |
| 2026-04-29 17:29 | 42.31382 | 11.27888 | 35007 ft | 456 kts | 198° |
| 2026-04-29 17:29 | 42.25249 | 11.25691 | 35007 ft | 456 kts | 198° |
| 2026-04-29 17:30 | 42.19126 | 11.23501 | 35007 ft | 456 kts | 198° |
| 2026-04-29 17:30 | 42.13025 | 11.21326 | 35007 ft | 456 kts | 198° |
| 2026-04-29 17:31 | 42.06900 | 11.19146 | 35007 ft | 456 kts | 198° |
| 2026-04-29 17:31 | 42.00795 | 11.16977 | 35007 ft | 456 kts | 198° |
| 2026-04-29 17:32 | 41.94645 | 11.14796 | 35007 ft | 456 kts | 198° |
| 2026-04-29 17:32 | 41.88518 | 11.12578 | 35014 ft | 455 kts | 200° |
| 2026-04-29 17:33 | 41.82741 | 11.09260 | 35026 ft | 450 kts | 212° |
| 2026-04-29 17:33 | 41.77656 | 11.04501 | 35031 ft | 445 kts | 224° |
| 2026-04-29 17:34 | 41.73408 | 10.98576 | 34955 ft | 438 kts | 232° |
| 2026-04-29 17:34 | 41.71449 | 10.95426 | 34491 ft | 435 kts | 232° |
| 2026-04-29 17:34 | 41.69527 | 10.92312 | 33664 ft | 438 kts | 232° |
| 2026-04-29 17:35 | 41.66285 | 10.87069 | 32117 ft | 446 kts | 232° |
| 2026-04-29 17:35 | 41.63629 | 10.82794 | 30885 ft | 450 kts | 232° |
| 2026-04-29 17:35 | 41.61607 | 10.79548 | 29948 ft | 452 kts | 232° |
| 2026-04-29 17:36 | 41.59592 | 10.76322 | 28998 ft | 454 kts | 232° |
| 2026-04-29 17:36 | 41.57586 | 10.73115 | 28028 ft | 457 kts | 232° |
| 2026-04-29 17:36 | 41.55552 | 10.69866 | 26952 ft | 461 kts | 232° |
| 2026-04-29 17:36 | 41.53268 | 10.66223 | 25709 ft | 465 kts | 232° |
| 2026-04-29 17:37 | 41.50996 | 10.62600 | 24446 ft | 468 kts | 231° |
| 2026-04-29 17:37 | 41.48676 | 10.58909 | 23360 ft | 466 kts | 231° |
| 2026-04-29 17:37 | 41.46380 | 10.55261 | 22557 ft | 458 kts | 231° |
| 2026-04-29 17:37 | 41.44123 | 10.51680 | 21709 ft | 452 kts | 231° |
| 2026-04-29 17:38 | 41.41870 | 10.48106 | 20845 ft | 447 kts | 231° |
| 2026-04-29 17:38 | 41.39624 | 10.44550 | 20088 ft | 440 kts | 231° |
| 2026-04-29 17:38 | 41.37471 | 10.41142 | 19392 ft | 433 kts | 231° |
| 2026-04-29 17:38 | 41.35439 | 10.37932 | 18740 ft | 426 kts | 231° |
| 2026-04-29 17:39 | 41.33433 | 10.34764 | 18095 ft | 420 kts | 230° |
| 2026-04-29 17:39 | 41.31437 | 10.31618 | 17441 ft | 415 kts | 230° |
| 2026-04-29 17:39 | 41.29517 | 10.28596 | 16797 ft | 410 kts | 230° |
| 2026-04-29 17:39 | 41.27638 | 10.25639 | 16155 ft | 406 kts | 230° |
| 2026-04-29 17:40 | 41.25749 | 10.22669 | 15497 ft | 403 kts | 231° |
| 2026-04-29 17:40 | 41.23856 | 10.19701 | 14786 ft | 402 kts | 230° |
| 2026-04-29 17:40 | 41.21677 | 10.17150 | 14080 ft | 402 kts | 211° |
| 2026-04-29 17:40 | 41.19065 | 10.15815 | 13474 ft | 400 kts | 192° |
| 2026-04-29 17:41 | 41.16165 | 10.15579 | 12870 ft | 396 kts | 181° |
| 2026-04-29 17:41 | 41.13241 | 10.15624 | 12232 ft | 392 kts | 180° |
| 2026-04-29 17:41 | 41.10173 | 10.15689 | 11682 ft | 384 kts | 180° |
| 2026-04-29 17:41 | 41.07241 | 10.15734 | 11370 ft | 370 kts | 180° |
| 2026-04-29 17:42 | 41.04539 | 10.15762 | 11123 ft | 356 kts | 180° |
| 2026-04-29 17:42 | 41.01959 | 10.15780 | 10886 ft | 344 kts | 180° |
| 2026-04-29 17:42 | 40.99357 | 10.15795 | 10659 ft | 331 kts | 180° |
| 2026-04-29 17:42 | 40.96846 | 10.15808 | 10461 ft | 318 kts | 180° |
| 2026-04-29 17:43 | 40.94440 | 10.15662 | 10250 ft | 306 kts | 194° |
| 2026-04-29 17:43 | 40.92423 | 10.14214 | 10066 ft | 292 kts | 225° |
| 2026-04-29 17:43 | 40.91299 | 10.11994 | 9839 ft | 285 kts | 244° |
| 2026-04-29 17:43 | 40.90491 | 10.09619 | 9466 ft | 284 kts | 246° |
| 2026-04-29 17:44 | 40.89696 | 10.07201 | 9105 ft | 282 kts | 245° |
| 2026-04-29 17:44 | 40.88895 | 10.04848 | 8758 ft | 280 kts | 243° |
| 2026-04-29 17:44 | 40.87959 | 10.02572 | 8413 ft | 277 kts | 237° |
| 2026-04-29 17:44 | 40.86861 | 10.00365 | 8058 ft | 275 kts | 234° |
| 2026-04-29 17:45 | 40.85764 | 9.98246 | 7756 ft | 270 kts | 234° |
| 2026-04-29 17:45 | 40.84975 | 9.95793 | 7551 ft | 265 kts | 264° |
| 2026-04-29 17:45 | 40.85428 | 9.93229 | 7367 ft | 262 kts | 300° |
| 2026-04-29 17:45 | 40.86872 | 9.91431 | 7030 ft | 265 kts | 325° |
| 2026-04-29 17:46 | 40.88569 | 9.90081 | 6706 ft | 264 kts | 327° |
| 2026-04-29 17:46 | 40.90257 | 9.88763 | 6386 ft | 263 kts | 326° |
| 2026-04-29 17:46 | 40.92005 | 9.87484 | 6036 ft | 266 kts | 339° |
| 2026-04-29 17:46 | 40.93817 | 9.87375 | 5840 ft | 260 kts | 19° |
| 2026-04-29 17:47 | 40.95296 | 9.88694 | 5861 ft | 257 kts | 54° |
| 2026-04-29 17:47 | 40.96285 | 9.90643 | 5917 ft | 256 kts | 62° |
| 2026-04-29 17:47 | 40.97180 | 9.92667 | 5943 ft | 256 kts | 62° |
| 2026-04-29 17:47 | 40.98111 | 9.94682 | 5968 ft | 256 kts | 60° |
| 2026-04-29 17:48 | 40.99219 | 9.96944 | 5981 ft | 256 kts | 59° |
| 2026-04-29 17:48 | 41.00356 | 9.99184 | 5986 ft | 256 kts | 58° |
| 2026-04-29 17:48 | 41.01474 | 10.01360 | 5988 ft | 256 kts | 58° |
| 2026-04-29 17:48 | 41.02522 | 10.03393 | 5988 ft | 256 kts | 58° |
| 2026-04-29 17:49 | 41.03662 | 10.05604 | 5989 ft | 256 kts | 58° |
| 2026-04-29 17:49 | 41.04804 | 10.07815 | 5989 ft | 256 kts | 58° |
| 2026-04-29 17:49 | 41.05951 | 10.10037 | 5989 ft | 257 kts | 57° |
| 2026-04-29 17:49 | 41.07397 | 10.11832 | 5952 ft | 260 kts | 22° |
| 2026-04-29 17:50 | 41.09410 | 10.12043 | 5972 ft | 257 kts | 339° |
| 2026-04-29 17:50 | 41.10963 | 10.10908 | 6009 ft | 253 kts | 320° |
| 2026-04-29 17:50 | 41.12368 | 10.09456 | 6000 ft | 253 kts | 318° |
| 2026-04-29 17:50 | 41.13844 | 10.07939 | 5993 ft | 253 kts | 320° |
| 2026-04-29 17:51 | 41.15357 | 10.06403 | 5980 ft | 249 kts | 310° |
| 2026-04-29 17:51 | 41.16229 | 10.04354 | 5966 ft | 230 kts | 275° |
| 2026-04-29 17:51 | 41.16117 | 10.02297 | 5987 ft | 220 kts | 246° |
| 2026-04-29 17:51 | 41.15428 | 10.00486 | 6001 ft | 218 kts | 236° |
| 2026-04-29 17:52 | 41.14626 | 9.98762 | 5994 ft | 217 kts | 234° |
| 2026-04-29 17:52 | 41.13800 | 9.97054 | 5991 ft | 217 kts | 234° |
| 2026-04-29 17:52 | 41.12961 | 9.95371 | 5999 ft | 217 kts | 233° |
| 2026-04-29 17:52 | 41.12113 | 9.93706 | 6025 ft | 217 kts | 233° |
| 2026-04-29 17:53 | 41.11248 | 9.92038 | 6050 ft | 217 kts | 232° |
| 2026-04-29 17:53 | 41.10378 | 9.90385 | 6073 ft | 217 kts | 232° |
| 2026-04-29 17:53 | 41.09507 | 9.88742 | 5940 ft | 218 kts | 232° |
| 2026-04-29 17:53 | 41.08631 | 9.87098 | 5701 ft | 217 kts | 232° |
| 2026-04-29 17:54 | 41.07759 | 9.85468 | 5456 ft | 217 kts | 231° |
| 2026-04-29 17:54 | 41.06892 | 9.83848 | 5207 ft | 216 kts | 231° |
| 2026-04-29 17:54 | 41.06025 | 9.82228 | 4955 ft | 215 kts | 231° |
| 2026-04-29 17:54 | 41.05164 | 9.80616 | 4701 ft | 214 kts | 231° |
| 2026-04-29 17:55 | 41.04305 | 9.79009 | 4447 ft | 213 kts | 231° |
| 2026-04-29 17:55 | 41.03392 | 9.77295 | 4171 ft | 211 kts | 231° |
| 2026-04-29 17:55 | 41.02537 | 9.75688 | 3912 ft | 208 kts | 232° |
| 2026-04-29 17:55 | 41.01671 | 9.74061 | 3691 ft | 203 kts | 233° |
| 2026-04-29 17:56 | 41.00825 | 9.72470 | 3595 ft | 188 kts | 235° |
| 2026-04-29 17:56 | 41.00064 | 9.71039 | 3326 ft | 184 kts | 236° |
| 2026-04-29 17:56 | 40.99335 | 9.69667 | 3061 ft | 180 kts | 237° |
| 2026-04-29 17:56 | 40.98622 | 9.68323 | 2805 ft | 176 kts | 237° |
| 2026-04-29 17:57 | 40.97910 | 9.66979 | 2585 ft | 168 kts | 237° |
| 2026-04-29 17:57 | 40.97261 | 9.65754 | 2346 ft | 155 kts | 237° |
| 2026-04-29 17:57 | 40.96626 | 9.64552 | 2132 ft | 151 kts | 237° |
| 2026-04-29 17:57 | 40.95994 | 9.63355 | 1930 ft | 152 kts | 237° |
| 2026-04-29 17:58 | 40.95379 | 9.62190 | 1731 ft | 153 kts | 237° |
| 2026-04-29 17:58 | 40.94762 | 9.61022 | 1534 ft | 156 kts | 236° |
| 2026-04-29 17:58 | 40.94119 | 9.59803 | 1328 ft | 157 kts | 234° |
| 2026-04-29 17:58 | 40.93500 | 9.58632 | 1118 ft | 156 kts | 234° |
| 2026-04-29 17:59 | 40.92883 | 9.57464 | 907 ft | 154 kts | 234° |
| 2026-04-29 17:59 | 40.92255 | 9.56274 | 694 ft | 153 kts | 234° |
| 2026-04-29 17:59 | 40.91635 | 9.55101 | 487 ft | 150 kts | 234° |
| 2026-04-29 17:59 | 40.91035 | 9.53965 | 284 ft | 148 kts | 234° |
| 2026-04-29 18:00 | 40.90445 | 9.52848 | 92 ft | 150 kts | 234° |
| 2026-04-29 18:00 | 40.89877 | 9.51788 | 46 ft | 120 kts | 232° |
| 2026-04-29 18:00 | 40.89577 | 9.51213 | 46 ft | 33 kts | 235° |
| 2026-04-29 18:00 | 40.89549 | 9.51159 | 46 ft | 0 kts | 234° |
| 2026-04-29 18:01 | 40.89493 | 9.51056 | 46 ft | 27 kts | 235° |
| 2026-04-29 18:01 | 40.89354 | 9.50788 | 46 ft | 38 kts | 236° |
| 2026-04-29 18:01 | 40.89280 | 9.50512 | 45 ft | 17 kts | 279° |
| 2026-04-29 18:01 | 40.89319 | 9.50458 | 46 ft | 0 kts | 333° |
| 2026-04-29 18:02 | 40.89319 | 9.50457 | 46 ft | 0 kts | 333° |
| 2026-04-29 18:02 | 40.89346 | 9.50449 | 46 ft | 10 kts | 0° |
| 2026-04-29 18:02 | 40.89408 | 9.50497 | 45 ft | 11 kts | 50° |
| 2026-04-29 18:03 | 40.89458 | 9.50591 | 46 ft | 12 kts | 56° |
| 2026-04-29 18:03 | 40.89509 | 9.50688 | 46 ft | 13 kts | 56° |
| 2026-04-29 18:03 | 40.89574 | 9.50741 | 46 ft | 12 kts | 356° |
| 2026-04-29 18:03 | 40.89628 | 9.50681 | 46 ft | 12 kts | 327° |